createdAt,value
2023-03-22T00:04:24.853Z,388.88
2023-03-22T00:09:39.707Z,389.18
2023-03-22T00:14:50.784Z,389.40
2023-03-22T00:19:58.347Z,389.72
2023-03-22T00:25:06.061Z,390.42
2023-03-22T00:30:13.550Z,390.22
2023-03-22T00:35:20.956Z,390.43
2023-03-22T00:40:28.339Z,389.81
2023-03-22T00:45:36.547Z,389.70
2023-03-22T00:50:46.892Z,390.66
2023-03-22T00:55:59.507Z,390.86
2023-03-22T01:01:07.153Z,391.91
2023-03-22T01:06:14.651Z,393.11
2023-03-22T01:11:26.950Z,394.52
2023-03-22T01:16:34.435Z,394.60
2023-03-22T01:22:03.203Z,394.06
2023-03-22T01:26:54.782Z,393.79
2023-03-22T01:32:09.908Z,394.43
2023-03-22T01:37:15.127Z,394.16
2023-03-22T01:42:22.391Z,394.75
2023-03-22T01:47:29.662Z,394.50
2023-03-22T01:52:37.123Z,394.14
2023-03-22T01:57:44.460Z,394.88
2023-03-22T02:02:51.770Z,394.93
2023-03-22T02:07:59.113Z,394.44
2023-03-22T02:13:06.461Z,394.16
2023-03-22T02:18:13.825Z,394.29
2023-03-22T02:23:21.279Z,394.68
2023-03-22T02:28:28.578Z,394.27
2023-03-22T02:33:35.982Z,393.88
2023-03-22T02:38:43.610Z,393.87
2023-03-22T02:43:50.947Z,394.01
2023-03-22T02:48:58.263Z,394.19
2023-03-22T02:54:06.198Z,393.19
2023-03-22T02:59:12.935Z,392.75
2023-03-22T03:04:20.217Z,393.44
2023-03-22T03:09:27.596Z,393.56
2023-03-22T03:14:34.925Z,393.67
2023-03-22T03:19:42.182Z,393.14
2023-03-22T03:24:49.469Z,391.99
2023-03-22T03:29:56.632Z,391.32
2023-03-22T03:35:03.853Z,391.62
2023-03-22T03:40:11.112Z,391.71
2023-03-22T03:45:18.271Z,392.48
2023-03-22T03:50:25.462Z,392.50
2023-03-22T03:55:32.675Z,392.51
2023-03-22T04:00:40.217Z,391.97
2023-03-22T04:05:47.184Z,391.16
2023-03-22T04:10:54.558Z,391.22
2023-03-22T04:16:02.126Z,390.93
2023-03-22T04:21:09.578Z,391.26
2023-03-22T04:26:17.117Z,391.49
2023-03-22T04:31:25.894Z,391.32
2023-03-22T04:36:33.175Z,391.14
2023-03-22T04:41:40.770Z,391.31
2023-03-22T04:46:48.211Z,391.12
2023-03-22T04:51:55.714Z,391.60
2023-03-22T04:57:03.084Z,391.42
2023-03-22T05:02:10.634Z,391.39
2023-03-22T05:07:18.186Z,391.62
2023-03-22T05:12:25.826Z,391.34
2023-03-22T05:17:33.114Z,391.38
2023-03-22T05:22:40.662Z,391.85
2023-03-22T05:27:47.755Z,391.30
2023-03-22T05:32:54.904Z,390.93
2023-03-22T05:38:02.086Z,390.95
2023-03-22T05:43:09.306Z,390.60
2023-03-22T05:48:16.544Z,390.53
2023-03-22T05:53:23.849Z,390.39
2023-03-22T05:58:31.154Z,390.52
2023-03-22T06:03:38.496Z,390.56
2023-03-22T06:08:46.346Z,390.61
2023-03-22T06:13:53.745Z,390.34
2023-03-22T06:19:05.838Z,390.54
2023-03-22T06:24:13.215Z,390.59
2023-03-22T06:29:20.797Z,390.87
2023-03-22T06:34:28.148Z,390.74
2023-03-22T06:39:35.663Z,391.09
2023-03-22T06:44:42.988Z,390.34
2023-03-22T06:49:50.265Z,389.97
2023-03-22T06:54:57.603Z,389.50
2023-03-22T07:00:05.163Z,389.37
2023-03-22T07:05:12.362Z,390.27
2023-03-22T07:10:19.629Z,390.45
2023-03-22T07:15:26.931Z,390.53
2023-03-22T07:20:34.211Z,390.35
2023-03-22T07:25:41.547Z,390.71
2023-03-22T07:30:48.815Z,391.11
2023-03-22T07:35:56.278Z,390.77
2023-03-22T07:41:03.619Z,390.57
2023-03-22T07:46:11.074Z,390.36
2023-03-22T07:51:18.262Z,390.43
2023-03-22T07:56:25.536Z,390.40
2023-03-22T08:01:32.864Z,390.07
2023-03-22T08:06:40.086Z,390.44
2023-03-22T08:11:47.379Z,390.67
2023-03-22T08:16:54.912Z,390.85
2023-03-22T08:22:02.126Z,390.99
2023-03-22T08:27:09.381Z,391.18
2023-03-22T08:32:16.758Z,391.10
2023-03-22T08:37:24.035Z,391.35
2023-03-22T08:42:31.296Z,391.41
2023-03-22T08:47:38.568Z,391.50
2023-03-22T08:52:45.797Z,391.75
2023-03-22T08:57:53.005Z,392.26
2023-03-22T09:03:00.205Z,393.16
2023-03-22T09:08:07.399Z,393.97
2023-03-22T09:13:14.555Z,394.39
2023-03-22T09:18:21.755Z,394.78
2023-03-22T09:23:28.952Z,395.21
2023-03-22T09:28:36.246Z,395.84
2023-03-22T09:33:43.332Z,396.57
2023-03-22T09:38:50.527Z,397.24
2023-03-22T09:43:57.915Z,397.77
2023-03-22T09:49:05.304Z,397.88
2023-03-22T09:54:12.538Z,398.08
2023-03-22T09:59:19.795Z,399.05
2023-03-22T10:04:27.036Z,398.86
2023-03-22T10:09:34.174Z,399.19
2023-03-22T10:14:41.422Z,399.13
2023-03-22T10:19:48.688Z,399.17
2023-03-22T10:24:55.831Z,399.94
2023-03-22T10:30:03.022Z,400.20
2023-03-22T10:35:10.246Z,400.84
2023-03-22T10:40:17.407Z,400.95
2023-03-22T10:45:24.622Z,401.70
2023-03-22T10:50:31.807Z,401.64
2023-03-22T10:55:39.377Z,402.07
2023-03-22T11:00:46.369Z,401.91
2023-03-22T11:05:53.471Z,402.43
2023-03-22T11:11:00.865Z,402.13
2023-03-22T11:16:08.173Z,403.20
2023-03-22T11:21:15.336Z,403.66
2023-03-22T11:26:22.499Z,404.40
2023-03-22T11:31:29.778Z,405.18
2023-03-22T11:36:37.089Z,405.08
2023-03-22T11:41:44.444Z,405.78
2023-03-22T11:46:51.740Z,406.38
2023-03-22T11:51:59.046Z,407.25
2023-03-22T11:57:06.353Z,408.14
2023-03-22T12:02:13.821Z,408.69
2023-03-22T12:07:20.996Z,409.46
2023-03-22T12:12:28.132Z,409.48
2023-03-22T12:17:35.534Z,409.49
2023-03-22T12:22:42.729Z,409.92
2023-03-22T12:27:49.991Z,411.24
2023-03-22T12:32:57.268Z,410.62
2023-03-22T12:38:04.528Z,410.96
2023-03-22T12:43:11.748Z,412.01
2023-03-22T12:48:19.137Z,412.95
2023-03-22T12:53:26.282Z,413.43
2023-03-22T12:58:33.398Z,414.66
2023-03-22T13:03:40.775Z,415.67
2023-03-22T13:08:47.998Z,415.95
2023-03-22T13:13:55.200Z,416.05
2023-03-22T13:19:02.453Z,416.20
2023-03-22T13:24:09.830Z,417.06
2023-03-22T13:29:17.026Z,417.74
2023-03-22T13:34:24.310Z,418.28
2023-03-22T13:39:31.660Z,418.14
2023-03-22T13:44:38.789Z,418.82
2023-03-22T13:49:46.061Z,418.58
2023-03-22T13:54:53.402Z,419.18
2023-03-22T14:00:10.343Z,418.88
2023-03-22T14:05:07.910Z,419.23
2023-03-22T14:10:15.231Z,419.05
2023-03-22T14:15:22.555Z,419.56
2023-03-22T14:20:29.770Z,419.68
2023-03-22T14:45:50.800Z,420.27
2023-03-22T14:50:58.111Z,420.09
2023-03-22T14:56:05.296Z,420.39
2023-03-22T15:01:12.503Z,420.50
2023-03-22T15:06:19.650Z,420.20
2023-03-22T15:11:26.844Z,420.93
2023-03-22T15:16:34.068Z,421.43
2023-03-22T15:21:41.281Z,420.93
2023-03-22T15:26:48.499Z,421.50
2023-03-22T15:31:55.792Z,421.40
2023-03-22T15:37:02.871Z,421.75
2023-03-22T15:42:10.046Z,421.49
2023-03-22T15:47:17.268Z,422.03
2023-03-22T15:52:24.441Z,421.73
2023-03-22T15:57:31.734Z,422.31
2023-03-22T16:02:39.031Z,421.60
2023-03-22T16:07:46.302Z,421.71
2023-03-22T16:12:53.613Z,421.23
2023-03-22T16:18:00.917Z,421.59
2023-03-22T16:23:08.205Z,421.10
2023-03-22T16:28:15.532Z,420.38
2023-03-22T16:33:22.837Z,420.42
2023-03-22T16:38:30.106Z,420.43
2023-03-22T16:43:37.374Z,420.24
2023-03-22T16:48:44.583Z,419.96
2023-03-22T16:53:51.762Z,420.21
2023-03-22T16:58:58.928Z,419.92
2023-03-22T17:04:06.145Z,420.08
2023-03-22T17:09:13.309Z,420.15
2023-03-22T17:14:20.508Z,419.97
2023-03-22T17:19:27.892Z,419.67
2023-03-22T17:24:35.025Z,419.85
2023-03-22T17:29:42.252Z,419.99
2023-03-22T17:34:49.566Z,420.04
2023-03-22T17:40:20.765Z,419.38
2023-03-22T17:45:06.832Z,419.35
2023-03-22T17:50:11.689Z,418.90
2023-03-22T17:55:27.750Z,418.85
2023-03-22T18:00:26.864Z,417.61
2023-03-22T18:05:34.507Z,416.97
2023-03-22T18:10:42.372Z,416.24
2023-03-22T18:15:49.412Z,415.65
2023-03-22T18:20:57.767Z,414.86
2023-03-22T18:26:05.141Z,415.06
2023-03-22T18:31:12.198Z,414.79
2023-03-22T18:36:19.798Z,415.09
2023-03-22T18:46:35.441Z,414.36
2023-03-22T18:52:23.336Z,413.84
2023-03-22T18:56:52.011Z,413.92
2023-03-22T19:02:20.624Z,413.72
2023-03-22T19:07:40.739Z,413.88
2023-03-22T19:12:30.567Z,413.55
2023-03-22T19:17:38.285Z,413.77
2023-03-22T19:22:46.024Z,414.29
2023-03-22T19:27:54.338Z,414.12
2023-03-22T19:33:24.302Z,413.89
2023-03-22T19:38:09.684Z,413.72
2023-03-22T19:43:17.338Z,413.30
2023-03-22T19:48:25.174Z,413.39
2023-03-22T19:58:40.119Z,413.63
2023-03-22T20:03:47.585Z,413.65
2023-03-22T20:08:55.512Z,413.12
2023-03-22T20:14:03.172Z,414.02
2023-03-22T20:19:10.899Z,414.26
2023-03-22T20:24:18.524Z,414.50
2023-03-22T20:29:26.220Z,414.47
2023-03-22T20:34:33.833Z,413.57
2023-03-22T20:39:41.260Z,413.30
2023-03-22T20:44:48.649Z,413.04
2023-03-22T20:49:56.264Z,413.08
2023-03-22T20:55:04.511Z,412.66
2023-03-22T21:00:11.689Z,412.55
2023-03-22T21:05:19.206Z,412.28
2023-03-22T21:10:26.635Z,412.82
2023-03-22T21:15:33.834Z,413.19
2023-03-22T21:20:41.084Z,413.37
2023-03-22T21:25:48.269Z,412.73
2023-03-22T21:30:55.457Z,412.08
2023-03-22T21:36:02.682Z,412.26
2023-03-22T21:41:09.923Z,413.08
2023-03-22T21:46:17.143Z,413.26
2023-03-22T21:51:24.392Z,413.66
2023-03-22T21:56:31.617Z,413.35
2023-03-22T22:01:38.870Z,413.26
2023-03-22T22:06:46.172Z,413.88
2023-03-22T22:11:53.452Z,414.08
2023-03-22T22:17:00.635Z,414.36
2023-03-22T22:22:07.913Z,414.77
2023-03-22T22:27:15.184Z,413.73
2023-03-22T22:32:22.463Z,414.09
2023-03-22T22:37:29.679Z,414.09
2023-03-22T22:42:36.947Z,413.52
2023-03-22T22:47:44.133Z,413.75
2023-03-22T22:52:51.410Z,414.17
2023-03-22T22:57:58.613Z,413.93
2023-03-22T23:03:05.873Z,414.30
2023-03-22T23:08:13.095Z,414.24
2023-03-22T23:13:20.373Z,413.94
2023-03-22T23:18:27.523Z,414.64
2023-03-22T23:23:34.730Z,413.95
2023-03-22T23:28:42.017Z,413.68
2023-03-22T23:33:51.199Z,413.91
2023-03-22T23:38:58.927Z,415.24
2023-03-22T23:44:11.248Z,415.73
2023-03-22T23:49:18.631Z,416.03
2023-03-22T23:55:11.821Z,416.13
2023-03-22T23:59:42.690Z,415.78
